Time;durP1;ratioP1;P1;durP2;ratioP2;P2;SDS_P1;SDS_P2;PMS_P1;PMS_P2;Temp;Humidity;BMP_temperature;BMP_pressure;BME280_temperature;BME280_humidity;BME280_pressure;Samples;Min_cycle;Max_cycle;Signal;HPM_P1;HPM_P2
2021/11/28 00:00:19;;;;;;;3.77;2.00;;;;;;;-145.69;100.00;71458.09;5113115;28;20208;-75
2021/11/28 00:02:46;;;;;;;4.60;2.00;;;;;;;-145.69;100.00;71454.13;5113019;28;20209;-75
2021/11/28 00:05:14;;;;;;;3.90;2.17;;;;;;;-145.69;100.00;71450.16;5115407;28;20250;-75
2021/11/28 00:07:51;;;;;;;5.23;2.60;;;;;;;-145.69;100.00;71436.22;5116723;28;20197;-74
2021/11/28 00:10:40;;;;;;;4.87;2.67;;;;;;;-145.69;100.00;71434.22;5116590;28;20231;-75
2021/11/28 00:13:11;;;;;;;5.73;2.50;;;;;;;-145.69;100.00;71430.25;5116326;27;20679;-75
2021/11/28 00:15:39;;;;;;;5.23;2.40;;;;;;;-145.69;100.00;71420.31;5116557;28;20197;-75
2021/11/28 00:18:07;;;;;;;6.40;2.53;;;;;;;-145.69;100.00;71426.28;5116419;28;20275;-74
2021/11/28 00:20:35;;;;;;;9.53;2.77;;;;;;;-145.69;100.00;71438.22;5116112;28;20294;-74
2021/11/28 00:23:01;;;;;;;8.30;2.57;;;;;;;-145.69;100.00;71446.16;5116471;28;20202;-74
2021/11/28 00:25:29;;;;;;;4.83;2.70;;;;;;;-145.69;100.00;71442.19;5116473;28;20247;-74
2021/11/28 00:27:55;;;;;;;4.50;1.90;;;;;;;-145.69;100.00;71434.22;5116391;28;20193;-74
2021/11/28 00:30:24;;;;;;;8.10;2.07;;;;;;;-145.69;100.00;71418.31;5116203;28;20202;-75
2021/11/28 00:32:51;;;;;;;4.83;2.10;;;;;;;-145.69;100.00;71406.38;5116094;28;20197;-74
2021/11/28 00:35:17;;;;;;;7.50;3.33;;;;;;;-145.69;100.00;71414.34;5116217;28;20255;-74
2021/11/28 00:37:44;;;;;;;7.27;2.33;;;;;;;-145.69;100.00;71414.34;5116240;28;20231;-75
2021/11/28 00:40:11;;;;;;;3.60;1.70;;;;;;;-145.69;100.00;71410.34;5116051;28;20205;-75
2021/11/28 00:42:39;;;;;;;8.07;2.17;;;;;;;-145.69;100.00;71402.41;5116027;28;20193;-75
2021/11/28 00:45:07;;;;;;;9.37;2.47;;;;;;;-145.69;100.00;71402.41;5115957;28;20201;-75
2021/11/28 00:47:33;;;;;;;6.33;2.47;;;;;;;-145.69;100.00;71412.34;5115955;28;20198;-75
2021/11/28 00:50:06;;;;;;;8.37;2.90;;;;;;;-145.69;100.00;71416.31;5115821;28;20202;-76
2021/11/28 00:52:35;;;;;;;5.27;2.30;;;;;;;-145.69;100.00;71418.31;5115684;28;20681;-75
2021/11/28 00:55:02;;;;;;;4.87;2.57;;;;;;;-145.69;100.00;71428.25;5115670;28;20320;-75
2021/11/28 00:57:29;;;;;;;7.47;2.83;;;;;;;-145.69;100.00;71426.28;5115853;28;20211;-75
2021/11/28 01:00:00;;;;;;;4.70;2.10;;;;;;;-145.69;100.00;71436.22;5115410;28;20251;-75
2021/11/28 01:02:27;;;;;;;6.83;2.30;;;;;;;-145.69;100.00;71434.22;5115476;28;20644;-75
2021/11/28 01:04:53;;;;;;;4.83;2.20;;;;;;;-145.69;100.00;71430.25;5115658;28;20206;-75
2021/11/28 01:07:20;;;;;;;6.33;2.13;;;;;;;-145.69;100.00;71426.28;5115623;28;20197;-75
2021/11/28 01:09:46;;;;;;;7.27;3.00;;;;;;;-145.69;100.00;71418.31;5115469;28;20193;-75
2021/11/28 01:12:13;;;;;;;10.27;2.40;;;;;;;-145.69;100.00;71428.25;5115423;28;20243;-75
2021/11/28 01:14:40;;;;;;;5.73;2.07;;;;;;;-145.69;100.00;71418.31;5115092;28;20229;-75
2021/11/28 01:17:08;;;;;;;7.37;2.47;;;;;;;-145.69;100.00;71420.31;5114338;28;20206;-75
2021/11/28 01:19:35;;;;;;;6.73;2.60;;;;;;;-145.69;100.00;71418.31;5115532;27;20225;-75
2021/11/28 01:22:05;;;;;;;4.73;2.20;;;;;;;-145.69;100.00;71418.31;5117245;27;20193;-75
2021/11/28 01:24:31;;;;;;;6.37;2.13;;;;;;;-145.69;100.00;71420.31;5115069;28;20206;-75
2021/11/28 01:26:59;;;;;;;3.63;2.00;;;;;;;-145.69;100.00;71426.28;5114994;28;20201;-75
2021/11/28 01:29:26;;;;;;;8.32;2.90;;;;;;;-145.69;100.00;71418.31;5114762;28;20431;-75
2021/11/28 01:31:52;;;;;;;4.63;2.03;;;;;;;-145.69;100.00;71424.28;5115152;28;20262;-75
2021/11/28 01:34:20;;;;;;;5.07;2.30;;;;;;;-145.69;100.00;71426.28;5114970;28;20225;-75
2021/11/28 01:36:47;;;;;;;6.23;1.90;;;;;;;-145.69;100.00;71422.28;5122069;27;20550;-75
2021/11/28 01:39:13;;;;;;;7.87;2.43;;;;;;;-145.69;100.00;71422.28;5135434;27;20197;-75
2021/11/28 01:41:40;;;;;;;4.83;2.47;;;;;;;-145.69;100.00;71422.28;5135203;27;20695;-75
2021/11/28 01:44:07;;;;;;;7.90;2.27;;;;;;;-145.69;100.00;71422.28;5135453;27;20220;-75
2021/11/28 01:46:33;;;;;;;3.63;2.03;;;;;;;-145.69;100.00;71426.28;5135434;27;20205;-75
2021/11/28 01:49:01;;;;;;;5.40;2.00;;;;;;;-145.69;100.00;71426.28;5135426;27;20204;-75
2021/11/28 01:51:29;;;;;;;6.37;2.57;;;;;;;-145.69;100.00;71430.25;5135262;27;20197;-75
2021/11/28 01:53:56;;;;;;;6.20;2.00;;;;;;;-145.69;100.00;71426.28;5135108;27;20225;-75
2021/11/28 01:56:26;;;;;;;3.80;2.03;;;;;;;-145.69;100.00;71420.31;5135027;27;20673;-75
2021/11/28 01:58:53;;;;;;;5.97;2.13;;;;;;;-145.69;100.00;71422.28;5135311;27;20242;-75
2021/11/28 02:01:21;;;;;;;10.03;2.00;;;;;;;-145.69;100.00;71400.41;5135108;27;20236;-75
2021/11/28 02:03:49;;;;;;;7.73;2.30;;;;;;;-145.69;100.00;71402.41;5135018;27;20208;-75
2021/11/28 02:06:18;;;;;;;7.73;2.27;;;;;;;-145.69;100.00;71408.38;5135001;27;20193;-75
2021/11/28 02:08:47;;;;;;;5.10;2.00;;;;;;;-145.69;100.00;71420.31;5134965;27;20671;-76
2021/11/28 02:11:14;;;;;;;7.73;2.60;;;;;;;-145.69;100.00;71430.25;5135055;27;20303;-76
2021/11/28 02:13:41;;;;;;;4.00;1.93;;;;;;;-145.69;100.00;71426.28;5135062;27;20224;-76
2021/11/28 02:16:08;;;;;;;5.57;2.03;;;;;;;-145.69;100.00;71418.31;5135031;27;20249;-75
2021/11/28 02:18:35;;;;;;;7.23;2.30;;;;;;;-145.69;100.00;71422.28;5134865;27;20238;-75
2021/11/28 02:21:05;;;;;;;7.30;2.47;;;;;;;-145.69;100.00;71424.28;5134433;27;20233;-75
2021/11/28 02:23:32;;;;;;;5.30;2.20;;;;;;;-145.69;100.00;71418.31;5134518;27;20205;-76
2021/11/28 02:26:01;;;;;;;3.17;1.77;;;;;;;-145.69;100.00;71430.25;5134842;27;20193;-76
2021/11/28 02:28:28;;;;;;;4.30;2.20;;;;;;;-145.69;100.00;71422.28;5134568;27;20563;-75
2021/11/28 02:30:55;;;;;;;4.47;2.03;;;;;;;-145.69;100.00;71428.25;5134811;27;20249;-75
2021/11/28 02:33:21;;;;;;;12.10;2.17;;;;;;;-145.69;100.00;71426.28;5134510;27;20707;-76
2021/11/28 02:35:48;;;;;;;6.77;2.23;;;;;;;-145.69;100.00;71430.25;5134159;27;20200;-75
2021/11/28 02:38:16;;;;;;;5.03;2.20;;;;;;;-145.69;100.00;71432.25;5134520;27;20245;-75
2021/11/28 02:40:44;;;;;;;5.27;2.07;;;;;;;-145.69;100.00;71438.22;5134123;27;20647;-75
2021/11/28 02:43:11;;;;;;;3.70;1.83;;;;;;;-145.69;100.00;71440.19;5134414;27;20197;-75
2021/11/28 02:45:39;;;;;;;9.53;2.20;;;;;;;-145.69;100.00;71436.22;5134221;27;20719;-75
2021/11/28 02:48:09;;;;;;;9.53;2.53;;;;;;;-145.69;100.00;71434.22;5134255;27;20563;-75
2021/11/28 02:50:36;;;;;;;5.37;2.40;;;;;;;-145.69;100.00;71428.25;5134285;27;20253;-75
2021/11/28 02:53:06;;;;;;;7.37;2.10;;;;;;;-145.69;100.00;71420.31;5134209;27;20639;-75
2021/11/28 02:55:39;;;;;;;5.67;1.67;;;;;;;-145.69;100.00;71418.31;5134180;27;20228;-75
2021/11/28 02:58:06;;;;;;;3.97;2.20;;;;;;;-145.69;100.00;71414.34;5134169;27;20670;-75
2021/11/28 03:00:35;;;;;;;5.03;2.17;;;;;;;-145.69;100.00;71404.38;5133864;27;20670;-75
2021/11/28 03:03:02;;;;;;;4.17;1.83;;;;;;;-145.69;100.00;71404.38;5133888;27;20205;-75
2021/11/28 03:05:28;;;;;;;7.43;2.37;;;;;;;-145.69;100.00;71402.41;5134060;27;20640;-75
2021/11/28 03:07:55;;;;;;;4.93;2.10;;;;;;;-145.69;100.00;71404.38;5134100;28;20587;-75
2021/11/28 03:10:42;;;;;;;5.00;1.93;;;;;;;-145.69;100.00;71402.41;5134086;28;20197;-75
2021/11/28 03:13:10;;;;;;;5.67;2.20;;;;;;;-145.69;100.00;71400.41;5133980;27;20201;-76
2021/11/28 03:15:38;;;;;;;4.50;2.10;;;;;;;-145.69;100.00;71402.41;5125353;28;20229;-75
2021/11/28 03:18:12;;;;;;;10.50;2.27;;;;;;;-145.69;100.00;71404.38;5113676;28;20208;-75
2021/11/28 03:20:38;;;;;;;8.53;2.10;;;;;;;-145.69;100.00;71410.34;5113188;28;20239;-75
2021/11/28 03:23:05;;;;;;;4.17;2.00;;;;;;;-145.69;100.00;71400.41;5113310;28;20204;-75
2021/11/28 03:25:33;;;;;;;4.93;2.10;;;;;;;-145.69;100.00;71402.41;5113164;28;20201;-75
2021/11/28 03:28:01;;;;;;;7.10;2.23;;;;;;;-145.69;100.00;71394.44;5113098;28;20572;-75
2021/11/28 03:30:27;;;;;;;5.13;1.77;;;;;;;-145.69;100.00;71398.41;5113544;28;20258;-75
2021/11/28 03:32:54;;;;;;;2.80;2.07;;;;;;;-145.69;100.00;71394.44;5113443;28;20197;-75
2021/11/28 03:35:20;;;;;;;5.10;2.07;;;;;;;-145.69;100.00;71390.47;5113141;28;20232;-75
2021/11/28 03:37:47;;;;;;;5.40;2.40;;;;;;;-145.69;100.00;71390.47;5113239;28;20250;-75
2021/11/28 03:40:15;;;;;;;6.53;2.00;;;;;;;-145.69;100.00;71390.47;5116159;28;20255;-76
2021/11/28 03:42:42;;;;;;;4.63;2.27;;;;;;;-145.69;100.00;71390.47;5117353;28;20201;-76
2021/11/28 03:45:13;;;;;;;6.13;2.80;;;;;;;-145.69;100.00;71380.50;5117161;28;20194;-75
2021/11/28 03:47:40;;;;;;;6.37;2.50;;;;;;;-145.69;100.00;71366.56;5117172;28;20270;-75
2021/11/28 03:50:07;;;;;;;8.60;2.00;;;;;;;-145.69;100.00;71374.53;5117122;28;20205;-75
2021/11/28 03:52:34;;;;;;;5.77;1.90;;;;;;;-145.69;100.00;71382.50;5117016;28;20197;-75
2021/11/28 03:55:01;;;;;;;4.73;1.77;;;;;;;-145.69;100.00;71386.47;5116711;28;20221;-75
2021/11/28 03:57:28;;;;;;;5.20;1.80;;;;;;;-145.69;100.00;71398.41;5117141;28;20201;-75
2021/11/28 03:59:54;;;;;;;2.73;1.67;;;;;;;-145.69;100.00;71396.44;5116832;28;20250;-75
2021/11/28 04:02:22;;;;;;;6.80;2.37;;;;;;;-145.69;100.00;71386.47;5116890;28;20206;-75
2021/11/28 04:04:49;;;;;;;8.33;2.40;;;;;;;-145.69;100.00;71386.47;5116600;28;20202;-75
2021/11/28 04:07:15;;;;;;;6.23;3.17;;;;;;;-145.69;100.00;71374.53;5116735;28;20198;-75
2021/11/28 04:09:42;;;;;;;4.97;2.60;;;;;;;-145.69;100.00;71378.50;5116522;28;20208;-75
2021/11/28 04:12:09;;;;;;;8.07;2.83;;;;;;;-145.69;100.00;71372.53;5116715;28;20197;-75
2021/11/28 04:14:35;;;;;;;8.60;2.97;;;;;;;-145.69;100.00;71376.53;5116503;28;20225;-74
2021/11/28 04:17:02;;;;;;;4.83;2.43;;;;;;;-145.69;100.00;71374.53;5116564;28;20263;-75
2021/11/28 04:19:30;;;;;;;7.67;2.67;;;;;;;-145.69;100.00;71368.56;5116212;28;20228;-75
2021/11/28 04:21:57;;;;;;;7.47;2.87;;;;;;;-145.69;100.00;71378.50;5116360;28;20242;-75
2021/11/28 04:24:23;;;;;;;6.43;2.40;;;;;;;-145.69;100.00;71380.50;5116507;28;20254;-75
2021/11/28 04:26:49;;;;;;;6.63;2.77;;;;;;;-145.69;100.00;71370.56;5116423;28;20206;-75
2021/11/28 04:29:17;;;;;;;4.70;2.60;;;;;;;-145.69;100.00;71364.59;5116267;28;20201;-74
2021/11/28 04:31:43;;;;;;;4.53;2.50;;;;;;;-145.69;100.00;71364.59;5116205;28;20220;-75
2021/11/28 04:34:10;;;;;;;7.43;3.10;;;;;;;-145.69;100.00;71362.59;5115842;28;20221;-74
2021/11/28 04:36:37;;;;;;;6.10;2.70;;;;;;;-145.69;100.00;71360.59;5115874;28;20201;-75
2021/11/28 04:39:04;;;;;;;7.67;2.73;;;;;;;-145.69;100.00;71356.63;5116179;28;20197;-75
2021/11/28 04:41:31;;;;;;;4.40;2.40;;;;;;;-145.69;100.00;71354.63;5116143;28;20193;-75
2021/11/28 04:43:58;;;;;;;5.57;2.80;;;;;;;-145.69;100.00;71360.59;5115875;28;20682;-75
2021/11/28 04:46:24;;;;;;;5.67;2.50;;;;;;;-145.69;100.00;71362.59;5115918;28;20625;-74
2021/11/28 04:48:51;;;;;;;3.97;2.43;;;;;;;-145.69;100.00;71372.53;5115759;28;20201;-75
2021/11/28 04:51:17;;;;;;;8.20;3.30;;;;;;;-145.69;100.00;71378.50;5115547;28;20288;-75
2021/11/28 04:53:45;;;;;;;6.63;2.77;;;;;;;-145.69;100.00;71378.50;5115855;28;20525;-74
2021/11/28 04:56:11;;;;;;;4.87;2.77;;;;;;;-145.69;100.00;71386.47;5115556;28;20225;-74
2021/11/28 04:58:38;;;;;;;4.17;2.30;;;;;;;-145.69;100.00;71400.41;5115564;28;20205;-75
2021/11/28 05:01:05;;;;;;;4.47;2.27;;;;;;;-145.69;100.00;71402.41;5115509;28;20660;-74
2021/11/28 05:03:31;;;;;;;3.90;2.23;;;;;;;-145.69;100.00;71414.34;5115494;28;20201;-74
2021/11/28 05:05:58;;;;;;;4.53;2.63;;;;;;;-145.69;100.00;71408.38;5115371;28;20260;-74
2021/11/28 05:08:24;;;;;;;6.20;2.90;;;;;;;-145.69;100.00;71400.41;5115585;28;20243;-74
2021/11/28 05:10:52;;;;;;;5.40;2.93;;;;;;;-145.69;100.00;71400.41;5115485;28;20609;-75
2021/11/28 05:13:18;;;;;;;8.07;2.87;;;;;;;-145.69;100.00;71394.44;5115387;28;20197;-75
2021/11/28 05:15:45;;;;;;;7.73;2.53;;;;;;;-145.69;100.00;71402.41;5115201;28;20221;-74
2021/11/28 05:18:11;;;;;;;6.40;3.00;;;;;;;-145.69;100.00;71400.41;5115117;28;20198;-75
2021/11/28 05:20:38;;;;;;;5.43;2.63;;;;;;;-145.69;100.00;71398.41;5114966;28;20229;-74
2021/11/28 05:23:04;;;;;;;6.13;3.10;;;;;;;-145.69;100.00;71394.44;5115433;28;20201;-75
2021/11/28 05:25:31;;;;;;;5.00;2.70;;;;;;;-145.69;100.00;71394.44;5131298;27;20250;-74
2021/11/28 05:27:58;;;;;;;5.07;2.50;;;;;;;-145.69;100.00;71400.41;5135782;27;20231;-74
2021/11/28 05:30:25;;;;;;;3.83;2.53;;;;;;;-145.69;100.00;71406.38;5135531;27;20199;-75
2021/11/28 05:32:51;;;;;;;5.40;2.60;;;;;;;-145.69;100.00;71408.38;5135582;27;20265;-75
2021/11/28 05:35:18;;;;;;;7.30;2.60;;;;;;;-145.69;100.00;71412.34;5135489;27;20229;-75
2021/11/28 05:37:45;;;;;;;4.77;2.20;;;;;;;-145.69;100.00;71406.38;5135501;27;20204;-75
2021/11/28 05:40:13;;;;;;;3.47;2.10;;;;;;;-145.69;100.00;71414.34;5135477;27;20196;-74
2021/11/28 05:42:44;;;;;;;2.90;1.97;;;;;;;-145.69;100.00;71406.38;5135296;27;20200;-75
2021/11/28 05:45:12;;;;;;;6.03;2.20;;;;;;;-145.69;100.00;71408.38;5135522;27;20200;-74
2021/11/28 05:47:39;;;;;;;8.67;2.60;;;;;;;-145.69;100.00;71410.34;5135083;27;20249;-74
2021/11/28 05:50:06;;;;;;;3.67;2.40;;;;;;;-145.69;100.00;71414.34;5135316;27;20200;-74
2021/11/28 05:52:33;;;;;;;7.23;2.53;;;;;;;-145.69;100.00;71404.38;5135243;27;20197;-74
2021/11/28 05:54:59;;;;;;;6.57;2.30;;;;;;;-145.69;100.00;71402.41;5135059;27;20236;-75
2021/11/28 05:57:25;;;;;;;6.10;2.17;;;;;;;-145.69;100.00;71396.44;5135010;27;20647;-75
2021/11/28 05:59:52;;;;;;;4.60;2.30;;;;;;;-145.69;100.00;71394.44;5134700;27;20647;-74
2021/11/28 06:02:20;;;;;;;5.03;2.23;;;;;;;-145.69;100.00;71390.47;5134634;27;20193;-74
2021/11/28 06:04:46;;;;;;;3.83;2.03;;;;;;;-145.69;100.00;71398.41;5134707;27;20599;-74
2021/11/28 06:07:13;;;;;;;6.33;2.47;;;;;;;-145.69;100.00;71402.41;5135083;27;20207;-75
2021/11/28 06:09:39;;;;;;;5.63;2.10;;;;;;;-145.69;100.00;71394.44;5134937;27;20559;-74
2021/11/28 06:12:07;;;;;;;7.43;2.30;;;;;;;-145.69;100.00;71394.44;5134664;27;20201;-74
2021/11/28 06:14:33;;;;;;;5.77;2.27;;;;;;;-145.69;100.00;71398.41;5134412;27;20663;-75
2021/11/28 06:17:00;;;;;;;5.50;2.20;;;;;;;-145.69;100.00;71398.41;5134846;27;20197;-75
2021/11/28 06:19:28;;;;;;;5.77;2.40;;;;;;;-145.69;100.00;71402.41;5134601;27;20225;-75
2021/11/28 06:21:55;;;;;;;5.57;2.23;;;;;;;-145.69;100.00;71398.41;5134769;27;20206;-74
2021/11/28 06:24:21;;;;;;;3.87;1.97;;;;;;;-145.69;100.00;71402.41;5134472;27;20246;-75
2021/11/28 06:26:48;;;;;;;4.37;1.93;;;;;;;-145.69;100.00;71402.41;5134447;27;20570;-75
2021/11/28 06:29:15;;;;;;;4.83;1.70;;;;;;;-145.69;100.00;71404.38;5134344;27;20237;-74
2021/11/28 06:31:41;;;;;;;4.57;2.23;;;;;;;-145.69;100.00;71406.38;5134561;27;20200;-75
2021/11/28 06:34:08;;;;;;;6.60;2.20;;;;;;;-145.69;100.00;71402.41;5134574;27;20197;-75
2021/11/28 06:36:36;;;;;;;4.33;2.20;;;;;;;-145.69;100.00;71400.41;5134250;27;20228;-75
2021/11/28 06:39:03;;;;;;;5.33;2.30;;;;;;;-145.69;100.00;71402.41;5134319;27;20197;-75
2021/11/28 06:41:30;;;;;;;2.87;2.03;;;;;;;-145.69;100.00;71402.41;5134391;27;20646;-75
2021/11/28 06:43:57;;;;;;;4.77;1.60;;;;;;;-145.69;100.00;71406.38;5134187;27;20200;-75
2021/11/28 06:46:24;;;;;;;4.50;1.70;;;;;;;-145.69;100.00;71410.34;5134488;27;20200;-75
2021/11/28 06:48:51;;;;;;;3.47;1.87;;;;;;;-145.69;100.00;71420.31;5134093;27;20197;-74
2021/11/28 06:51:18;;;;;;;2.53;1.50;;;;;;;-145.69;100.00;71414.34;5134073;27;20716;-75
2021/11/28 06:53:45;;;;;;;5.37;2.10;;;;;;;-145.69;100.00;71422.28;5134062;27;20234;-75
2021/11/28 06:56:12;;;;;;;2.30;1.60;;;;;;;-145.69;100.00;71418.31;5133800;27;20683;-75
2021/11/28 06:58:38;;;;;;;5.67;1.73;;;;;;;-145.69;100.00;71402.41;5134131;27;20196;-74
2021/11/28 07:01:05;;;;;;;3.07;1.53;;;;;;;-145.69;100.00;71404.38;5134186;27;20208;-74
2021/11/28 07:03:32;;;;;;;2.20;1.60;;;;;;;-145.69;100.00;71400.41;5134029;27;20197;-74
2021/11/28 07:05:58;;;;;;;2.50;1.40;;;;;;;-145.69;100.00;71400.41;5133866;27;20659;-75
2021/11/28 07:08:24;;;;;;;3.80;1.60;;;;;;;-145.69;100.00;71402.41;5133954;27;20245;-75
2021/11/28 07:10:53;;;;;;;5.73;1.87;;;;;;;-145.69;100.00;71406.38;5133774;28;20708;-75
2021/11/28 07:13:20;;;;;;;3.53;1.57;;;;;;;-145.69;100.00;71406.38;5133833;27;20232;-75
2021/11/28 07:15:46;;;;;;;1.67;1.27;;;;;;;-145.69;100.00;71400.41;5137837;27;20613;-75
2021/11/28 07:18:13;;;;;;;3.63;1.23;;;;;;;-145.69;100.00;71402.41;5138188;27;20200;-75
2021/11/28 07:20:39;;;;;;;3.40;1.40;;;;;;;-145.69;100.00;71400.41;5137936;27;20254;-75
2021/11/28 07:23:05;;;;;;;9.63;3.27;;;;;;;-145.69;100.00;71402.41;5138061;27;20203;-74
2021/11/28 07:25:32;;;;;;;4.97;2.33;;;;;;;-145.69;100.00;71394.44;5137914;27;20250;-75
2021/11/28 07:28:01;;;;;;;7.70;2.53;;;;;;;-145.69;100.00;71388.47;5125156;27;20660;-75
2021/11/28 07:30:28;;;;;;;3.77;1.60;;;;;;;-145.69;100.00;71382.50;5117468;28;20193;-75
2021/11/28 07:32:55;;;;;;;3.33;1.23;;;;;;;-145.69;100.00;71378.50;5117448;28;20203;-75
2021/11/28 07:35:22;;;;;;;4.77;1.43;;;;;;;-145.69;100.00;71372.53;5117135;28;20282;-75
2021/11/28 07:37:48;;;;;;;3.67;1.83;;;;;;;-145.69;100.00;71376.53;5117309;28;20193;-76
2021/11/28 07:40:15;;;;;;;3.90;1.47;;;;;;;-145.69;100.00;71370.56;5117161;28;20712;-75
2021/11/28 07:42:42;;;;;;;4.10;1.87;;;;;;;-145.69;100.00;71360.59;5117622;28;20243;-75
2021/11/28 07:45:11;;;;;;;6.33;3.30;;;;;;;-145.69;100.00;71368.56;5117307;28;20201;-75
2021/11/28 07:47:38;;;;;;;4.00;1.63;;;;;;;-145.69;100.00;71366.56;5117055;28;20212;-74
2021/11/28 07:50:07;;;;;;;10.93;4.93;;;;;;;-145.69;100.00;71360.59;5116836;28;20209;-74
2021/11/28 07:52:34;;;;;;;6.70;3.67;;;;;;;-145.69;100.00;71354.63;5116934;28;20201;-74
2021/11/28 07:55:00;;;;;;;3.27;1.93;;;;;;;-145.69;100.00;71350.66;5116866;28;20201;-75
2021/11/28 07:57:26;;;;;;;1.90;1.70;;;;;;;-145.69;100.00;71342.69;5116991;28;20197;-75
2021/11/28 07:59:53;;;;;;;3.07;2.10;;;;;;;-145.69;100.00;71328.78;5116828;28;20247;-75
2021/11/28 08:02:21;;;;;;;3.67;1.90;;;;;;;-145.69;100.00;71326.78;5116765;28;20208;-75
2021/11/28 08:04:48;;;;;;;3.57;1.60;;;;;;;-145.69;100.00;71306.88;5116876;28;20205;-75
2021/11/28 08:07:15;;;;;;;4.20;2.00;;;;;;;-145.69;100.00;71281.00;5116764;28;20300;-74
2021/11/28 08:09:42;;;;;;;4.23;2.00;;;;;;;-145.69;100.00;71269.06;5116781;28;20198;-75
2021/11/28 08:12:08;;;;;;;2.97;1.90;;;;;;;-145.69;100.00;71271.06;5116307;28;20202;-75
2021/11/28 08:14:35;;;;;;;3.17;1.80;;;;;;;-145.69;100.00;71263.09;5116571;28;20201;-75
2021/11/28 08:17:01;;;;;;;2.93;1.67;;;;;;;-145.69;100.00;71239.22;5116429;27;20282;-75
2021/11/28 08:19:29;;;;;;;2.77;1.53;;;;;;;-145.69;100.00;71241.22;5116302;28;20236;-75
2021/11/28 08:21:56;;;;;;;2.40;1.67;;;;;;;-145.69;100.00;71243.22;5116720;28;20197;-75
2021/11/28 08:24:22;;;;;;;5.33;1.97;;;;;;;-145.69;100.00;71233.25;5116082;28;20205;-75
2021/11/28 08:26:49;;;;;;;3.67;1.87;;;;;;;-145.69;100.00;71227.28;5116330;28;20544;-75
2021/11/28 08:29:16;;;;;;;3.57;1.77;;;;;;;-145.69;100.00;71201.41;5116204;28;20198;-75
2021/11/28 08:31:42;;;;;;;3.07;1.53;;;;;;;-145.69;100.00;71183.50;5116472;28;20544;-75
2021/11/28 08:34:09;;;;;;;4.40;1.80;;;;;;;-145.69;100.00;71187.50;5115985;28;20247;-75
2021/11/28 08:36:37;;;;;;;5.37;1.80;;;;;;;-145.69;100.00;71183.50;5115892;28;20733;-75
2021/11/28 08:39:03;;;;;;;6.47;2.40;;;;;;;-145.69;100.00;71203.41;5116158;28;20197;-75
2021/11/28 08:41:30;;;;;;;4.53;1.53;;;;;;;-145.69;100.00;71213.38;5116040;28;20309;-75
2021/11/28 08:43:57;;;;;;;3.57;1.50;;;;;;;-145.69;100.00;71221.31;5116135;28;20202;-75
2021/11/28 08:46:24;;;;;;;5.73;1.67;;;;;;;-145.69;100.00;71221.31;5115977;28;20205;-75
2021/11/28 08:48:53;;;;;;;3.70;1.63;;;;;;;-145.69;100.00;71219.34;5115980;28;20194;-76
2021/11/28 08:51:20;;;;;;;2.63;1.70;;;;;;;-145.69;100.00;71215.34;5116205;28;20197;-76
2021/11/28 08:53:48;;;;;;;2.20;1.67;;;;;;;-145.69;100.00;71185.50;5115975;28;20210;-76
2021/11/28 08:56:15;;;;;;;3.30;1.60;;;;;;;-145.69;100.00;71163.63;5115861;28;20614;-76
2021/11/28 08:58:41;;;;;;;2.53;1.90;;;;;;;-145.69;100.00;71149.69;5115993;28;20243;-76
2021/11/28 09:01:08;;;;;;;3.80;2.27;;;;;;;-145.69;100.00;71135.75;5116005;28;20197;-77
2021/11/28 09:03:35;;;;;;;7.33;1.87;;;;;;;-145.69;100.00;71133.78;5115706;28;20681;-77
2021/11/28 09:06:02;;;;;;;4.67;1.93;;;;;;;-145.69;100.00;71127.81;5115688;28;20205;-76
2021/11/28 09:08:28;;;;;;;3.43;2.00;;;;;;;-145.69;100.00;71121.84;5115846;28;20197;-77
2021/11/28 09:10:56;;;;;;;3.17;1.70;;;;;;;-145.69;100.00;71127.81;5115593;28;20197;-77
2021/11/28 09:13:23;;;;;;;2.83;1.80;;;;;;;-145.69;100.00;71119.84;5115516;28;20552;-77
2021/11/28 09:15:49;;;;;;;2.83;2.13;;;;;;;-145.69;100.00;71131.78;5115469;28;20232;-76
2021/11/28 09:18:19;;;;;;;4.67;2.57;;;;;;;-145.69;100.00;71131.78;5115619;28;20205;-76
2021/11/28 09:20:49;;;;;;;3.80;2.27;;;;;;;-145.69;100.00;71135.75;5115193;28;20264;-78
2021/11/28 09:26:02;;;;;;;3.67;2.27;;;;;;;-145.69;100.00;71167.59;5135889;27;20612;-77
2021/11/28 09:28:28;;;;;;;5.40;2.33;;;;;;;-145.69;99.22;71183.50;5136048;27;21159;-77
2021/11/28 09:30:55;;;;;;;3.47;1.90;;;;;;;-145.69;97.91;71155.66;5136005;27;20273;-77
2021/11/28 09:33:21;;;;;;;2.77;1.90;;;;;;;-145.69;95.95;71121.84;5135772;27;20698;-77
2021/11/28 09:35:48;;;;;;;3.63;1.87;;;;;;;-145.69;95.44;71121.84;5135775;27;20221;-77
2021/11/28 09:38:14;;;;;;;3.73;2.30;;;;;;;-145.69;95.87;71135.75;5134953;27;20196;-77
2021/11/28 09:40:45;;;;;;;5.47;2.83;;;;;;;-145.69;94.88;71111.88;5135447;27;20245;-77
2021/11/28 09:43:14;;;;;;;6.20;3.00;;;;;;;-145.69;95.67;71113.88;5135790;27;20261;-76
2021/11/28 09:45:43;;;;;;;7.20;3.80;;;;;;;-145.69;97.07;71097.97;5135722;27;20193;-77
2021/11/28 09:48:11;;;;;;;6.87;3.13;;;;;;;-145.69;95.37;71123.81;5135581;27;20253;-79
2021/11/28 09:50:38;;;;;;;8.23;2.77;;;;;;;-145.69;94.57;71109.91;5135427;27;20708;-76
2021/11/28 09:53:06;;;;;;;5.10;2.33;;;;;;;-145.69;95.44;71115.88;5135278;27;20597;-77
2021/11/28 09:55:33;;;;;;;6.40;2.17;;;;;;;-145.69;93.02;71111.88;5135014;27;20227;-76
2021/11/28 09:58:00;;;;;;;4.53;1.90;;;;;;;-145.69;95.93;71123.81;5135299;27;20201;-76
2021/11/28 10:00:27;;;;;;;5.87;2.40;;;;;;;-145.69;94.40;71135.75;5135105;27;20205;-76
2021/11/28 10:02:54;;;;;;;5.63;2.77;;;;;;;-145.69;96.57;71135.75;5135154;27;20274;-75
2021/11/28 10:05:21;;;;;;;5.23;2.40;;;;;;;-145.69;96.43;71101.94;5135017;27;20200;-75
2021/11/28 10:07:49;;;;;;;2.90;1.97;;;;;;;-145.69;93.18;71121.84;5134925;27;20204;-76
2021/11/28 10:10:17;;;;;;;6.67;2.20;;;;;;;-145.69;94.05;71117.84;5135592;27;20203;-76
2021/11/28 10:12:45;;;;;;;2.60;1.60;;;;;;;-145.69;90.21;71107.91;5135063;27;20241;-77
2021/11/28 10:15:15;;;;;;;1.17;1.00;;;;;;;-145.69;90.79;71090.00;5134927;27;20242;-76
2021/11/28 10:17:43;;;;;;;4.70;1.53;;;;;;;-145.69;88.72;71099.94;5134776;27;20227;-76
2021/11/28 10:20:11;;;;;;;4.07;2.03;;;;;;;-145.69;90.55;71101.94;5134730;27;20277;-76
2021/11/28 10:22:38;;;;;;;2.93;1.53;;;;;;;-145.69;89.04;71086.03;5134647;27;20257;-76
2021/11/28 10:25:15;;;;;;;2.90;1.50;;;;;;;-145.69;87.29;71078.06;5134912;27;20216;-77
2021/11/28 10:27:43;;;;;;;2.77;1.10;;;;;;;-145.69;85.01;71088.00;5125750;27;20272;-76
2021/11/28 10:30:13;;;;;;;1.70;1.17;;;;;;;-145.69;87.04;71074.09;5134387;27;20208;-77
2021/11/28 10:32:50;;;;;;;2.93;1.47;;;;;;;-145.69;89.40;71115.88;5134691;27;20196;-76
2021/11/28 10:35:18;;;;;;;3.03;1.10;;;;;;;-145.69;87.53;71103.94;5134440;27;20261;-76
2021/11/28 10:37:46;;;;;;;1.53;1.30;;;;;;;-145.69;88.60;71131.78;5134166;27;20235;-76
2021/11/28 10:40:17;;;;;;;2.20;1.30;;;;;;;-145.69;92.60;71119.84;5134524;27;20275;-76
2021/11/28 10:42:48;;;;;;;3.87;1.67;;;;;;;-145.69;89.92;71127.81;5134288;27;20204;-76
2021/11/28 10:45:17;;;;;;;2.13;1.30;;;;;;;-145.69;91.54;71183.50;5134280;27;20200;-76
2021/11/28 10:47:46;;;;;;;2.80;1.27;;;;;;;-145.69;90.89;71187.50;5133917;27;20201;-76
2021/11/28 10:50:18;;;;;;;2.67;1.77;;;;;;;-145.69;90.43;71191.47;5134280;27;20201;-76
2021/11/28 10:52:47;;;;;;;4.37;1.73;;;;;;;-145.69;93.72;71183.50;5134277;27;20204;-76
2021/11/28 10:55:17;;;;;;;2.47;1.90;;;;;;;-145.69;95.34;71183.50;5134127;27;20212;-76
2021/11/28 10:57:44;;;;;;;6.00;2.03;;;;;;;-145.69;96.14;71203.41;5133975;27;20225;-76
2021/11/28 11:00:12;;;;;;;6.47;2.50;;;;;;;-145.69;95.51;71217.34;5133915;27;20208;-76
2021/11/28 11:02:42;;;;;;;2.53;1.77;;;;;;;-145.69;95.23;71215.34;5134268;27;20197;-75
2021/11/28 11:05:12;;;;;;;2.67;1.80;;;;;;;-145.69;96.43;71223.31;5134101;27;20228;-76
2021/11/28 11:07:48;;;;;;;37.33;12.33;;;;;;;-145.69;97.41;71219.34;5134239;27;20201;-76
2021/11/28 11:10:21;;;;;;;5.63;2.20;;;;;;;-145.69;96.70;71207.38;5134228;27;20200;-76
2021/11/28 11:12:48;;;;;;;2.83;2.00;;;;;;;-145.69;95.42;71197.44;5134258;27;20197;-75